Time;durP1;ratioP1;P1;durP2;ratioP2;P2;SDS_P1;SDS_P2;PMS_P1;PMS_P2;Temp;Humidity;BMP_temperature;BMP_pressure;BME280_temperature;BME280_humidity;BME280_pressure;Samples;Min_cycle;Max_cycle;Signal;HPM_P1;HPM_P2
2021/04/23 00:01:03;;;;;;;4.30;3.90;;;7.80;99.90;;;;;;5029968;28;20445;-60
2021/04/23 00:03:31;;;;;;;10.67;4.53;;;7.80;99.90;;;;;;5030679;28;20538;-60
2021/04/23 00:06:10;;;;;;;8.50;4.80;;;7.90;99.90;;;;;;5030853;28;20441;-60
2021/04/23 00:08:37;;;;;;;6.20;3.80;;;7.90;99.90;;;;;;5030539;28;20451;-60
2021/04/23 00:11:06;;;;;;;14.13;4.00;;;7.80;99.90;;;;;;5029027;28;20459;-61
2021/04/23 00:13:32;;;;;;;5.53;4.13;;;7.90;99.90;;;;;;5029625;28;20439;-60
2021/04/23 00:15:58;;;;;;;3.77;3.37;;;7.90;99.90;;;;;;5030059;28;20479;-60
2021/04/23 00:18:24;;;;;;;4.50;4.07;;;7.80;99.90;;;;;;5045744;28;20843;-60
2021/04/23 00:20:51;;;;;;;6.93;3.63;;;7.80;99.90;;;;;;5029384;28;20440;-61
2021/04/23 00:23:17;;;;;;;6.00;4.40;;;7.80;99.90;;;;;;5029547;28;20446;-60
2021/04/23 00:25:43;;;;;;;4.00;3.70;;;7.90;99.90;;;;;;5030109;28;20439;-61
2021/04/23 00:28:12;;;;;;;5.10;4.23;;;7.90;99.90;;;;;;5030617;28;20988;-61
2021/04/23 00:30:42;;;;;;;4.73;4.00;;;7.80;99.90;;;;;;5030231;28;20476;-61
2021/04/23 00:33:09;;;;;;;7.43;4.43;;;7.90;99.90;;;;;;5030589;28;20504;-60
2021/04/23 00:35:37;;;;;;;5.37;4.07;;;7.80;99.90;;;;;;5029906;28;20494;-62
2021/04/23 00:38:05;;;;;;;6.40;4.40;;;7.80;99.90;;;;;;5031005;28;20435;-60
2021/04/23 00:40:36;;;;;;;9.37;4.03;;;7.80;99.90;;;;;;5028976;28;20444;-60
2021/04/23 00:43:02;;;;;;;4.57;3.77;;;7.80;99.90;;;;;;5027921;28;20485;-61
2021/04/23 00:45:29;;;;;;;7.40;4.37;;;7.80;99.90;;;;;;5029136;28;20901;-60
2021/04/23 00:47:58;;;;;;;4.60;3.90;;;7.80;99.90;;;;;;5030094;28;20439;-60
2021/04/23 00:50:40;;;;;;;5.37;4.20;;;7.70;99.90;;;;;;5027776;28;20937;-60
2021/04/23 00:53:08;;;;;;;4.50;4.10;;;7.60;99.90;;;;;;5040184;28;20448;-60
2021/04/23 00:55:34;;;;;;;5.30;3.70;;;7.60;99.90;;;;;;5030981;28;20456;-60
2021/04/23 00:58:00;;;;;;;5.00;3.67;;;7.50;99.90;;;;;;5023667;28;20448;-61
2021/04/23 01:00:26;;;;;;;4.97;4.10;;;7.50;99.90;;;;;;5027992;28;20471;-61
2021/04/23 01:02:52;;;;;;;4.70;4.00;;;7.40;1.00;;;;;;5026993;28;20430;-61
2021/04/23 01:05:22;;;;;;;6.20;3.90;;;7.30;1.00;;;;;;5029773;28;20436;-61
2021/04/23 01:07:50;;;;;;;6.10;4.07;;;7.30;1.00;;;;;;5029405;28;20193;-60
2021/04/23 01:10:18;;;;;;;4.72;4.13;;;7.40;1.00;;;;;;5029716;28;20440;-59
2021/04/23 01:12:44;;;;;;;5.20;4.47;;;7.30;1.00;;;;;;5010115;28;20212;-60
2021/04/23 01:15:10;;;;;;;8.10;4.37;;;7.20;1.00;;;;;;5026334;28;20209;-62
2021/04/23 01:17:36;;;;;;;8.48;4.15;;;7.30;1.00;;;;;;5029195;28;20662;-60
2021/04/23 01:20:04;;;;;;;5.20;3.90;;;7.20;1.00;;;;;;5026496;28;20189;-60
2021/04/23 01:22:29;;;;;;;7.13;4.07;;;7.10;1.00;;;;;;5028857;28;20535;-61
2021/04/23 01:24:55;;;;;;;7.53;4.00;;;7.00;33.80;;;;;;5029130;28;20200;-61
2021/04/23 01:27:20;;;;;;;5.00;4.13;;;6.90;99.90;;;;;;5029515;28;20199;-60
2021/04/23 01:29:46;;;;;;;5.33;4.23;;;6.80;99.90;;;;;;5029607;28;20246;-60
2021/04/23 01:32:11;;;;;;;6.43;4.47;;;6.80;99.90;;;;;;5028337;28;20275;-61
2021/04/23 01:34:39;;;;;;;4.60;4.10;;;6.80;99.90;;;;;;5029712;28;20225;-60
2021/04/23 01:37:07;;;;;;;5.30;3.92;;;6.80;99.90;;;;;;5029210;28;20909;-62
2021/04/23 01:39:36;;;;;;;6.85;4.15;;;6.70;1.00;;;;;;5029714;28;21046;-61
2021/04/23 01:42:02;;;;;;;8.70;4.78;;;6.60;1.00;;;;;;5028362;28;20176;-61
2021/04/23 01:44:30;;;;;;;6.22;3.92;;;6.60;1.00;;;;;;5029761;28;20187;-61
2021/04/23 01:46:56;;;;;;;4.50;4.10;;;6.60;1.00;;;;;;5027895;28;20514;-61
2021/04/23 01:49:23;;;;;;;6.50;4.50;;;6.50;1.00;;;;;;5029716;28;20267;-60
2021/04/23 01:51:52;;;;;;;8.50;4.80;;;6.40;99.90;;;;;;5028250;28;21168;-61
2021/04/23 01:54:19;;;;;;;6.95;4.55;;;6.30;99.90;;;;;;5027712;28;20189;-60
2021/04/23 01:56:45;;;;;;;6.95;4.50;;;6.20;99.90;;;;;;5027237;28;20210;-61
2021/04/23 01:59:12;;;;;;;8.55;4.57;;;6.10;1.00;;;;;;5029614;28;20728;-61
2021/04/23 02:01:38;;;;;;;5.68;4.15;;;6.00;21.80;;;;;;5025321;28;20176;-60
2021/04/23 02:04:06;;;;;;;6.17;5.20;;;6.00;99.90;;;;;;5028230;28;20202;-61
2021/04/23 02:06:32;;;;;;;6.93;4.68;;;5.90;99.90;;;;;;5026279;28;20242;-61
2021/04/23 02:08:58;;;;;;;5.28;4.07;;;5.90;99.90;;;;;;5028069;28;20268;-60
2021/04/23 02:11:23;;;;;;;9.40;4.53;;;5.80;1.00;;;;;;5028939;28;20190;-60
2021/04/23 02:13:51;;;;;;;7.70;4.20;;;5.80;1.00;;;;;;5030374;28;20532;-61
2021/04/23 02:16:19;;;;;;;6.15;4.57;;;5.70;1.00;;;;;;5029892;28;20272;-61
2021/04/23 02:18:46;;;;;;;6.43;4.53;;;5.70;99.90;;;;;;5026571;28;20253;-60
2021/04/23 02:21:14;;;;;;;6.63;5.00;;;5.70;1.00;;;;;;5029181;28;20202;-61
2021/04/23 02:23:46;;;;;;;7.05;5.30;;;5.60;99.90;;;;;;5027107;28;20213;-61
2021/04/23 02:26:12;;;;;;;7.57;4.40;;;5.60;1.00;;;;;;5028029;28;20189;-64
2021/04/23 02:28:38;;;;;;;5.10;4.35;;;5.50;1.00;;;;;;5027696;28;20193;-61
2021/04/23 02:31:17;;;;;;;6.22;4.93;;;5.50;1.00;;;;;;5044983;28;20227;-60
2021/04/23 02:33:45;;;;;;;6.82;4.45;;;5.40;1.00;;;;;;5027869;28;20197;-60
2021/04/23 02:36:11;;;;;;;6.95;5.00;;;5.40;1.00;;;;;;5028306;28;20208;-61
2021/04/23 02:38:37;;;;;;;8.33;4.80;;;5.40;1.00;;;;;;5027667;28;20192;-60
2021/04/23 02:41:05;;;;;;;7.20;4.80;;;5.30;99.90;;;;;;5027887;28;20551;-60
2021/04/23 02:43:38;;;;;;;5.88;3.95;;;5.30;99.90;;;;;;5029254;28;20417;-60
2021/04/23 02:46:05;;;;;;;5.82;4.65;;;5.30;99.90;;;;;;5027170;28;20659;-61
2021/04/23 02:48:35;;;;;;;7.45;5.30;;;5.20;99.90;;;;;;5028380;28;20728;-61
2021/04/23 02:51:10;;;;;;;6.35;4.60;;;5.20;99.90;;;;;;5027826;28;20182;-60
2021/04/23 02:53:35;;;;;;;8.10;5.22;;;5.10;1.00;;;;;;5028714;28;20189;-61
2021/04/23 02:56:04;;;;;;;6.70;5.10;;;5.10;1.00;;;;;;5026817;28;20217;-61
2021/04/23 02:58:29;;;;;;;7.88;4.88;;;5.10;14.70;;;;;;5019916;28;20187;-59
2021/04/23 03:01:00;;;;;;;11.63;5.40;;;5.10;2.50;;;;;;5027815;28;20186;-60
2021/04/23 03:03:27;;;;;;;8.60;5.75;;;5.10;33.60;;;;;;5027451;28;20205;-60
2021/04/23 03:05:53;;;;;;;7.75;5.10;;;5.00;99.90;;;;;;5028409;28;20193;-60
2021/04/23 03:08:20;;;;;;;9.75;5.18;;;5.00;99.90;;;;;;5030416;28;20548;-61
2021/04/23 03:10:51;;;;;;;9.38;4.68;;;4.90;99.90;;;;;;5032104;28;20723;-60
2021/04/23 03:13:21;;;;;;;8.30;5.07;;;4.90;99.90;;;;;;5030816;28;20248;-61
2021/04/23 03:15:48;;;;;;;8.43;4.82;;;4.90;99.90;;;;;;5032588;28;20259;-61
2021/04/23 03:18:16;;;;;;;9.60;5.65;;;4.90;99.90;;;;;;5031816;28;20243;-60
2021/04/23 03:20:43;;;;;;;8.50;5.68;;;4.90;99.90;;;;;;5027068;28;20183;-62
2021/04/23 03:23:09;;;;;;;8.05;5.03;;;4.80;1.00;;;;;;5032644;28;20190;-61
2021/04/23 03:25:35;;;;;;;9.67;5.57;;;4.80;1.00;;;;;;5029976;28;20183;-61
2021/04/23 03:28:02;;;;;;;7.80;4.68;;;4.90;1.00;;;;;;5046183;28;20562;-60
2021/04/23 03:30:31;;;;;;;9.27;5.20;;;4.90;1.00;;;;;;5030874;28;20218;-61
2021/04/23 03:32:57;;;;;;;6.72;5.18;;;4.80;1.00;;;;;;5031898;28;20189;-61
2021/04/23 03:35:23;;;;;;;8.80;5.80;;;4.80;1.00;;;;;;5031281;28;20230;-60
2021/04/23 03:37:49;;;;;;;10.25;5.60;;;4.80;1.00;;;;;;5032228;28;20265;-61
2021/04/23 03:40:20;;;;;;;8.03;5.00;;;4.80;1.00;;;;;;5031245;28;20225;-60
2021/04/23 03:42:45;;;;;;;8.18;5.07;;;4.80;1.00;;;;;;5031275;28;20501;-64
2021/04/23 03:45:14;;;;;;;9.93;6.70;;;4.70;1.00;;;;;;5030834;28;20894;-61
2021/04/23 03:47:40;;;;;;;9.45;4.90;;;4.70;1.00;;;;;;5030971;28;20191;-61
2021/04/23 03:50:09;;;;;;;7.17;5.60;;;4.70;1.00;;;;;;5030903;28;20183;-61
2021/04/23 03:52:34;;;;;;;10.43;5.65;;;4.70;1.00;;;;;;5031156;28;20276;-61
2021/04/23 03:55:06;;;;;;;9.70;5.60;;;4.70;1.00;;;;;;5010536;28;22241;-60
2021/04/23 03:57:33;;;;;;;8.80;5.97;;;4.70;1.00;;;;;;5030450;28;20265;-62
2021/04/23 03:59:58;;;;;;;6.53;4.95;;;4.70;1.00;;;;;;5030556;28;20211;-61
2021/04/23 04:02:24;;;;;;;9.30;6.20;;;4.60;1.00;;;;;;5030976;28;20214;-61
2021/04/23 04:04:49;;;;;;;8.63;5.60;;;4.60;1.00;;;;;;5029477;28;20182;-61
2021/04/23 04:07:15;;;;;;;11.67;5.27;;;4.60;1.00;;;;;;5031219;28;20182;-61
2021/04/23 04:09:40;;;;;;;6.23;5.10;;;4.70;1.00;;;;;;5045122;28;20872;-60
2021/04/23 04:12:06;;;;;;;8.37;6.00;;;4.80;1.00;;;;;;5030871;28;20190;-61
2021/04/23 04:14:32;;;;;;;8.43;4.97;;;4.80;1.00;;;;;;5037227;28;20251;-62
2021/04/23 04:16:57;;;;;;;9.73;5.00;;;4.90;1.00;;;;;;5021634;28;20178;-61
2021/04/23 04:19:24;;;;;;;8.10;5.30;;;4.90;1.00;;;;;;5005131;28;20290;-58
2021/04/23 04:21:49;;;;;;;8.52;5.88;;;5.00;1.00;;;;;;5020491;28;20182;-59
2021/04/23 04:24:15;;;;;;;6.93;4.80;;;5.10;1.00;;;;;;5006718;28;20187;-60
2021/04/23 04:26:40;;;;;;;8.30;5.40;;;5.10;1.00;;;;;;5022091;28;20237;-60
2021/04/23 04:29:06;;;;;;;6.73;5.33;;;5.10;1.00;;;;;;5016474;28;20305;-65
2021/04/23 04:31:31;;;;;;;6.23;5.30;;;5.20;1.00;;;;;;5022375;28;20195;-66
2021/04/23 04:33:58;;;;;;;10.00;5.77;;;5.30;1.00;;;;;;5008034;28;20191;-64
2021/04/23 04:36:23;;;;;;;9.13;5.88;;;5.30;1.00;;;;;;5003084;28;20235;-65
2021/04/23 04:38:49;;;;;;;7.20;5.80;;;5.30;1.00;;;;;;5026949;28;20708;-65
2021/04/23 04:41:15;;;;;;;9.40;5.43;;;5.30;1.00;;;;;;5031041;28;20402;-65
2021/04/23 04:43:41;;;;;;;8.25;5.78;;;5.30;1.00;;;;;;5030544;28;20191;-65
2021/04/23 04:46:08;;;;;;;8.20;5.63;;;5.30;1.00;;;;;;5029862;28;20174;-65
2021/04/23 04:48:34;;;;;;;8.63;6.28;;;5.30;1.00;;;;;;5031582;28;20173;-65
2021/04/23 04:51:02;;;;;;;8.40;5.23;;;5.30;1.00;;;;;;5030070;28;20190;-65
2021/04/23 04:53:28;;;;;;;7.47;5.45;;;5.40;1.00;;;;;;5031371;28;20447;-65
2021/04/23 04:55:58;;;;;;;8.57;5.97;;;5.40;1.00;;;;;;5030459;28;20206;-66
2021/04/23 04:58:30;;;;;;;9.65;5.53;;;5.40;1.00;;;;;;5031097;28;20214;-65
2021/04/23 05:00:56;;;;;;;13.55;6.43;;;5.50;1.00;;;;;;5028976;28;20175;-65
2021/04/23 05:03:22;;;;;;;9.27;6.43;;;5.60;1.00;;;;;;5030449;28;20266;-66
2021/04/23 05:05:49;;;;;;;8.53;6.03;;;5.60;99.90;;;;;;5029513;28;20254;-65
2021/04/23 05:08:15;;;;;;;9.68;5.90;;;5.60;1.00;;;;;;5030682;28;20265;-65
2021/04/23 05:10:41;;;;;;;10.30;5.85;;;5.70;99.90;;;;;;5029245;28;20186;-65
2021/04/23 05:13:07;;;;;;;6.72;5.18;;;5.70;99.90;;;;;;5030509;28;20187;-65
2021/04/23 05:15:33;;;;;;;7.60;6.20;;;5.70;99.90;;;;;;5039603;28;20203;-66
2021/04/23 05:17:59;;;;;;;7.80;6.63;;;5.80;99.90;;;;;;5029839;28;20186;-65
2021/04/23 05:20:25;;;;;;;9.80;5.50;;;5.80;99.90;;;;;;5030231;28;20904;-65
2021/04/23 05:22:50;;;;;;;7.70;5.30;;;5.80;1.00;;;;;;5029588;28;20182;-65
2021/04/23 05:25:20;;;;;;;9.53;5.83;;;5.90;99.90;;;;;;5030203;28;20427;-66
2021/04/23 05:27:46;;;;;;;7.93;5.60;;;6.00;99.90;;;;;;5029824;28;20438;-66
2021/04/23 05:30:15;;;;;;;9.67;5.97;;;6.20;99.90;;;;;;5025740;28;20237;-66
2021/04/23 05:32:42;;;;;;;8.60;5.40;;;6.30;59.00;;;;;;5029897;28;20186;-67
2021/04/23 05:35:10;;;;;;;10.55;6.07;;;6.30;99.90;;;;;;5030034;28;20268;-67
2021/04/23 05:37:36;;;;;;;8.85;5.30;;;6.30;99.90;;;;;;5027124;28;20183;-68
2021/04/23 05:40:05;;;;;;;7.60;5.20;;;6.30;99.00;;;;;;5020801;28;20187;-64
2021/04/23 05:42:31;;;;;;;7.07;5.35;;;6.40;99.90;;;;;;5029373;28;20171;-60
2021/04/23 05:44:56;;;;;;;8.97;6.47;;;6.40;99.90;;;;;;5028566;28;20195;-65
2021/04/23 05:47:23;;;;;;;10.13;6.00;;;6.50;99.90;;;;;;5029774;28;20593;-65
2021/04/23 05:49:49;;;;;;;9.30;5.90;;;6.40;99.90;;;;;;5028483;28;20205;-65
2021/04/23 05:52:15;;;;;;;7.83;5.43;;;6.50;99.90;;;;;;5022926;28;20206;-64
2021/04/23 05:54:41;;;;;;;10.50;6.00;;;6.50;1.00;;;;;;5029557;28;20186;-64
2021/04/23 05:57:06;;;;;;;9.80;6.20;;;6.40;1.00;;;;;;5041096;28;20189;-65
2021/04/23 05:59:32;;;;;;;9.60;6.47;;;6.50;1.00;;;;;;5029106;28;20216;-65
2021/04/23 06:01:59;;;;;;;8.43;5.57;;;6.50;1.00;;;;;;5028043;28;20187;-66
2021/04/23 06:04:24;;;;;;;9.40;6.05;;;6.60;1.00;;;;;;5028655;28;20447;-64
2021/04/23 06:06:50;;;;;;;8.37;5.73;;;6.70;1.00;;;;;;5022948;28;20593;-69
2021/04/23 06:09:16;;;;;;;10.93;6.20;;;6.80;99.90;;;;;;5028168;28;20902;-69
2021/04/23 06:11:42;;;;;;;6.87;5.90;;;6.80;99.90;;;;;;5029197;28;20209;-68
2021/04/23 06:14:08;;;;;;;12.93;6.50;;;6.90;1.00;;;;;;5033926;28;20253;-68
2021/04/23 06:16:34;;;;;;;9.43;6.23;;;7.00;99.90;;;;;;5032355;28;20685;-67
2021/04/23 06:19:00;;;;;;;11.73;6.10;;;7.00;1.00;;;;;;5028455;28;20185;-67
2021/04/23 06:21:26;;;;;;;13.27;5.50;;;7.00;99.90;;;;;;5025962;28;20184;-67
2021/04/23 06:23:51;;;;;;;9.63;5.90;;;7.10;88.60;;;;;;5027613;28;20187;-68
2021/04/23 06:26:17;;;;;;;9.13;5.90;;;7.10;99.90;;;;;;5029201;28;20189;-67
2021/04/23 06:28:45;;;;;;;8.50;5.67;;;7.10;1.00;;;;;;5028662;28;20226;-67
2021/04/23 06:31:13;;;;;;;12.10;5.77;;;7.20;99.90;;;;;;5029221;28;20922;-68
2021/04/23 06:33:41;;;;;;;7.80;5.68;;;7.20;1.00;;;;;;5028062;28;20427;-67
2021/04/23 06:36:08;;;;;;;8.53;5.67;;;7.40;99.90;;;;;;5028189;28;20248;-67
2021/04/23 06:38:34;;;;;;;7.60;5.60;;;7.30;99.90;;;;;;5028653;28;20420;-68
2021/04/23 06:41:00;;;;;;;9.40;6.23;;;7.40;56.80;;;;;;5028390;28;20411;-68
2021/04/23 06:43:26;;;;;;;7.40;5.40;;;7.30;99.90;;;;;;5028267;28;20418;-68
2021/04/23 06:45:52;;;;;;;9.80;5.53;;;7.20;99.90;;;;;;5024648;28;20205;-66
2021/04/23 06:48:18;;;;;;;8.23;5.50;;;7.10;1.00;;;;;;5028707;28;20421;-68
2021/04/23 06:50:44;;;;;;;9.38;5.53;;;7.00;99.90;;;;;;5028623;28;20416;-68
2021/04/23 06:53:10;;;;;;;8.73;5.75;;;7.10;99.90;;;;;;5024699;28;20271;-66
2021/04/23 06:55:36;;;;;;;7.55;5.20;;;7.00;1.00;;;;;;5028059;28;20197;-65
2021/04/23 06:58:02;;;;;;;9.50;5.60;;;7.00;1.00;;;;;;5027859;28;20224;-67
2021/04/23 07:00:34;;;;;;;10.65;5.55;;;7.00;99.90;;;;;;5023096;28;20433;-68
2021/04/23 07:03:01;;;;;;;13.10;6.10;;;7.10;99.90;;;;;;5025346;28;20223;-66
2021/04/23 07:05:28;;;;;;;8.20;6.00;;;7.30;1.00;;;;;;5019922;28;21264;-68
2021/04/23 07:07:54;;;;;;;7.73;5.10;;;7.40;99.90;;;;;;5026264;28;20445;-69
2021/04/23 07:10:22;;;;;;;7.07;5.67;;;7.60;1.00;;;;;;5027869;28;20420;-65
2021/04/23 07:12:48;;;;;;;10.30;5.40;;;7.60;77.90;;;;;;5027528;28;20264;-65
2021/04/23 07:15:16;;;;;;;6.97;4.67;;;7.70;1.00;;;;;;5028535;28;20862;-66
2021/04/23 07:17:43;;;;;;;7.23;5.23;;;7.60;1.00;;;;;;5027480;28;20494;-64
2021/04/23 07:20:09;;;;;;;10.17;4.97;;;7.60;1.00;;;;;;5027737;28;20428;-68
2021/04/23 07:22:34;;;;;;;9.80;5.07;;;7.70;1.00;;;;;;5027903;28;20423;-67
2021/04/23 07:25:00;;;;;;;7.10;5.30;;;7.90;1.00;;;;;;5027683;28;20424;-67
2021/04/23 07:27:26;;;;;;;8.47;5.00;;;8.00;99.90;;;;;;5027723;28;20209;-66
2021/04/23 07:29:51;;;;;;;8.67;5.00;;;8.10;42.20;;;;;;5027850;28;20315;-64
2021/04/23 07:32:17;;;;;;;7.07;5.57;;;8.10;99.90;;;;;;5027995;28;20181;-63
2021/04/23 07:34:42;;;;;;;8.50;5.30;;;8.20;99.90;;;;;;5027924;28;20191;-64
2021/04/23 07:37:08;;;;;;;7.87;5.37;;;8.20;68.00;;;;;;5028418;28;20707;-65
2021/04/23 07:39:34;;;;;;;7.90;6.20;;;8.20;1.00;;;;;;5027560;28;20620;-64
2021/04/23 07:42:00;;;;;;;6.10;4.77;;;8.10;3.40;;;;;;5027333;28;20659;-63
2021/04/23 07:44:27;;;;;;;6.47;4.50;;;8.10;81.50;;;;;;5027431;28;20185;-64
2021/04/23 07:46:52;;;;;;;7.10;5.10;;;8.10;99.90;;;;;;5027536;28;21322;-65
2021/04/23 07:49:18;;;;;;;10.33;5.50;;;8.00;99.90;;;;;;5027227;28;20440;-68
2021/04/23 07:51:44;;;;;;;10.80;5.33;;;8.00;99.90;;;;;;5027539;28;20829;-65
2021/04/23 07:54:10;;;;;;;8.90;5.27;;;8.00;99.90;;;;;;5022370;28;20439;-67
2021/04/23 07:56:36;;;;;;;8.20;5.07;;;8.10;99.90;;;;;;5028885;28;20202;-65
2021/04/23 07:59:03;;;;;;;7.77;5.00;;;8.30;1.00;;;;;;5023073;28;20381;-65
2021/04/23 08:01:29;;;;;;;7.10;5.20;;;8.30;1.00;;;;;;5025276;28;21244;-66
2021/04/23 08:03:55;;;;;;;7.27;4.60;;;8.40;1.00;;;;;;5023716;28;20474;-65
2021/04/23 08:06:20;;;;;;;5.43;3.97;;;8.50;1.00;;;;;;5028679;28;20785;-67
2021/04/23 08:08:46;;;;;;;7.97;5.00;;;8.50;99.90;;;;;;5030185;28;20186;-65
2021/04/23 08:11:11;;;;;;;7.43;5.30;;;8.70;99.90;;;;;;5023103;28;20788;-66
2021/04/23 08:13:37;;;;;;;5.73;4.60;;;8.90;99.90;;;;;;5023181;28;20636;-67
2021/04/23 08:16:03;;;;;;;6.67;5.10;;;9.00;99.90;;;;;;5023716;28;20198;-68
2021/04/23 08:18:28;;;;;;;7.93;7.10;;;9.30;1.70;;;;;;5029305;28;20814;-69
2021/04/23 08:20:54;;;;;;;8.73;5.53;;;9.40;1.00;;;;;;5029869;28;20266;-67
2021/04/23 08:23:19;;;;;;;5.20;4.40;;;9.70;1.00;;;;;;5029284;28;20248;-63
2021/04/23 08:25:45;;;;;;;5.40;4.70;;;9.60;1.00;;;;;;5029784;28;20210;-67
2021/04/23 08:28:11;;;;;;;5.70;4.00;;;9.40;1.00;;;;;;5029933;28;20202;-67
2021/04/23 08:30:36;;;;;;;6.70;4.20;;;9.20;1.00;;;;;;5028785;28;20643;-65
2021/04/23 08:33:02;;;;;;;5.10;4.33;;;9.20;1.00;;;;;;5026979;28;20583;-65
2021/04/23 08:35:28;;;;;;;7.93;4.37;;;9.30;1.00;;;;;;5029962;28;20305;-64
2021/04/23 08:37:54;;;;;;;7.30;4.30;;;9.50;1.00;;;;;;5028684;28;20519;-64
2021/04/23 08:40:21;;;;;;;4.63;4.23;;;9.30;1.00;;;;;;5029603;28;20868;-67
2021/04/23 08:42:48;;;;;;;5.13;3.83;;;9.40;1.00;;;;;;5024090;28;20444;-65
2021/04/23 08:45:16;;;;;;;4.73;4.20;;;9.50;1.00;;;;;;5029989;28;20479;-64
2021/04/23 08:47:43;;;;;;;4.20;3.60;;;9.40;1.00;;;;;;5028734;28;20958;-63
2021/04/23 08:50:10;;;;;;;5.40;4.00;;;9.40;1.00;;;;;;5029204;28;20927;-64
2021/04/23 08:52:36;;;;;;;6.40;3.87;;;9.30;1.00;;;;;;5029908;28;20508;-65
2021/04/23 08:55:04;;;;;;;3.97;3.60;;;9.20;1.00;;;;;;5029707;28;20862;-63
2021/04/23 08:57:29;;;;;;;6.00;4.27;;;9.20;1.00;;;;;;5028828;28;20491;-65
2021/04/23 08:59:55;;;;;;;5.30;4.07;;;9.10;1.00;;;;;;5030126;28;21235;-64
2021/04/23 09:02:21;;;;;;;7.63;4.07;;;9.00;1.00;;;;;;5028490;28;20198;-64
2021/04/23 09:04:46;;;;;;;6.30;3.60;;;8.90;1.00;;;;;;5029096;28;20178;-64
2021/04/23 09:07:13;;;;;;;4.73;3.90;;;9.00;1.00;;;;;;5020353;28;20244;-65
2021/04/23 09:09:40;;;;;;;4.70;4.10;;;8.90;1.00;;;;;;5026655;28;20272;-62
2021/04/23 09:12:24;;;;;;;4.33;3.93;;;9.00;1.00;;;;;;5025540;28;20784;-64
2021/04/23 09:14:54;;;;;;;6.03;4.50;;;9.10;1.00;;;;;;5025281;28;20460;-63
2021/04/23 09:17:24;;;;;;;7.57;4.50;;;9.10;1.00;;;;;;5029868;28;20401;-65
2021/04/23 09:19:50;;;;;;;4.13;3.60;;;9.10;1.00;;;;;;5024118;28;20446;-64
2021/04/23 09:22:26;;;;;;;5.90;4.03;;;9.10;1.00;;;;;;5023575;28;20478;-61
2021/04/23 09:25:09;;;;;;;5.20;4.10;;;9.20;1.00;;;;;;5026407;28;21438;-61
2021/04/23 09:27:37;;;;;;;4.83;4.20;;;9.40;1.00;;;;;;5029076;28;21289;-60
2021/04/23 09:30:09;;;;;;;5.77;4.43;;;9.40;1.00;;;;;;5029060;28;20492;-60
2021/04/23 09:32:40;;;;;;;5.13;4.27;;;9.30;1.00;;;;;;5028835;28;20409;-61
2021/04/23 09:35:20;;;;;;;4.27;3.77;;;9.50;1.00;;;;;;5028202;28;20863;-61
2021/04/23 09:37:52;;;;;;;4.40;4.00;;;9.60;1.00;;;;;;5027404;28;20405;-60
2021/04/23 09:40:23;;;;;;;4.43;4.03;;;9.70;1.00;;;;;;5027235;28;20408;-60
2021/04/23 09:42:59;;;;;;;4.47;4.07;;;9.70;1.00;;;;;;5026455;28;21065;-60
2021/04/23 09:45:27;;;;;;;4.73;4.27;;;9.90;1.00;;;;;;5027679;28;20412;-61
2021/04/23 09:47:53;;;;;;;5.13;4.07;;;9.90;1.00;;;;;;5026438;28;20414;-60
2021/04/23 09:50:21;;;;;;;4.27;3.87;;;9.80;1.00;;;;;;5027124;28;20421;-60
2021/04/23 09:52:51;;;;;;;5.47;4.27;;;9.80;1.00;;;;;;5024865;28;21384;-60
2021/04/23 09:55:37;;;;;;;5.77;4.27;;;10.00;1.00;;;;;;5029503;28;20495;-60
2021/04/23 09:58:08;;;;;;;5.07;4.30;;;10.40;1.00;;;;;;5026545;28;20433;-60
2021/04/23 10:00:37;;;;;;;4.17;3.77;;;10.40;99.90;;;;;;5028082;28;21107;-61
2021/04/23 10:03:05;;;;;;;5.00;4.50;;;10.50;99.90;;;;;;5027336;28;20421;-60
2021/04/23 10:05:41;;;;;;;7.10;4.10;;;10.50;99.90;;;;;;5026824;28;20428;-60
2021/04/23 10:08:22;;;;;;;5.00;4.50;;;10.70;99.90;;;;;;5024884;28;20500;-60
2021/04/23 10:10:54;;;;;;;5.87;4.97;;;10.80;99.90;;;;;;5027187;28;20441;-60
2021/04/23 10:13:31;;;;;;;5.77;4.83;;;11.00;99.90;;;;;;5028741;28;20413;-61
2021/04/23 10:15:57;;;;;;;5.40;4.87;;;11.00;99.90;;;;;;5037237;28;20948;-59
2021/04/23 10:18:23;;;;;;;5.70;5.17;;;10.90;99.90;;;;;;5028879;28;20487;-60
2021/04/23 10:20:50;;;;;;;5.90;4.50;;;11.00;99.90;;;;;;5026919;28;20425;-61
2021/04/23 10:23:21;;;;;;;4.63;4.10;;;11.00;99.90;;;;;;5028579;28;20416;-60
2021/04/23 10:25:48;;;;;;;4.80;4.30;;;10.90;99.90;;;;;;5027469;28;20425;-60
2021/04/23 10:28:24;;;;;;;6.30;4.70;;;11.00;99.90;;;;;;5028185;28;20494;-60
2021/04/23 10:30:53;;;;;;;6.90;5.00;;;11.00;99.90;;;;;;5043804;28;20523;-60
2021/04/23 10:33:21;;;;;;;7.20;4.93;;;11.00;99.90;;;;;;5028050;28;20895;-59
2021/04/23 10:35:49;;;;;;;6.27;5.70;;;10.80;99.90;;;;;;5037697;28;20468;-60
2021/04/23 10:38:18;;;;;;;6.33;4.57;;;10.80;99.90;;;;;;5017357;28;20773;-62
2021/04/23 10:40:52;;;;;;;6.57;5.37;;;10.70;99.90;;;;;;5014474;28;20817;-62
2021/04/23 10:43:19;;;;;;;5.70;5.20;;;10.70;99.90;;;;;;5028019;28;20899;-62
2021/04/23 10:45:58;;;;;;;5.50;5.00;;;10.60;99.90;;;;;;5027467;28;20417;-63
2021/04/23 10:48:30;;;;;;;7.10;4.90;;;10.40;99.90;;;;;;5021731;28;20579;-62
2021/04/23 10:51:02;;;;;;;5.30;4.80;;;10.30;99.90;;;;;;5019958;28;21229;-58
2021/04/23 10:53:45;;;;;;;5.27;4.87;;;10.40;99.90;;;;;;5020282;28;20884;-60
2021/04/23 10:56:27;;;;;;;7.47;5.17;;;10.60;99.90;;;;;;5023486;28;20469;-61
2021/04/23 10:58:53;;;;;;;6.00;3.80;;;10.60;99.90;;;;;;5026089;28;20425;-60
2021/04/23 11:01:31;;;;;;;6.03;4.90;;;10.60;99.90;;;;;;5026910;28;20408;-60
2021/04/23 11:04:03;;;;;;;6.43;4.40;;;10.60;99.90;;;;;;5026144;28;20417;-62
2021/04/23 11:06:34;;;;;;;5.87;5.03;;;10.50;99.90;;;;;;5024777;28;20875;-59
2021/04/23 11:09:00;;;;;;;6.03;4.80;;;10.40;99.90;;;;;;5028661;28;20404;-60
2021/04/23 11:11:29;;;;;;;4.87;3.80;;;10.40;99.90;;;;;;5025784;28;20436;-59
2021/04/23 11:14:15;;;;;;;6.53;4.40;;;10.40;99.90;;;;;;5030810;28;20178;-62
2021/04/23 11:16:41;;;;;;;5.30;4.67;;;10.40;99.90;;;;;;5023468;28;20515;-60
2021/04/23 11:19:19;;;;;;;5.17;4.70;;;10.40;99.90;;;;;;5025646;28;20443;-61
2021/04/23 11:22:03;;;;;;;5.03;4.63;;;10.30;99.90;;;;;;5024210;28;20194;-63
2021/04/23 11:24:29;;;;;;;7.57;4.83;;;10.30;99.90;;;;;;5026074;28;20762;-58
2021/04/23 11:29:34;;;;;;;6.40;5.77;;;10.20;99.90;;;;;;5029303;28;20222;-60
2021/04/23 11:32:15;;;;;;;5.93;5.30;;;10.10;99.90;;;;;;5029785;28;20209;-61
2021/04/23 11:34:46;;;;;;;8.43;6.10;;;10.00;1.00;;;;;;5028521;28;20433;-59
2021/04/23 11:37:21;;;;;;;10.80;6.10;;;10.10;1.00;;;;;;5030076;28;20413;-60
2021/04/23 11:39:54;;;;;;;9.13;5.83;;;10.10;1.00;;;;;;5021290;28;20417;-59
2021/04/23 11:42:38;;;;;;;7.07;5.70;;;10.20;1.00;;;;;;5020727;28;20907;-60
2021/04/23 11:45:11;;;;;;;9.90;5.40;;;10.40;1.00;;;;;;5031049;28;21185;-61
2021/04/23 11:47:43;;;;;;;7.20;6.10;;;11.00;1.00;;;;;;5024629;28;20413;-60
2021/04/23 11:50:17;;;;;;;7.17;6.00;;;11.40;99.90;;;;;;5027931;28;20421;-62
2021/04/23 11:52:45;;;;;;;7.57;5.63;;;11.50;99.90;;;;;;5030911;28;20413;-60
2021/04/23 11:55:18;;;;;;;7.13;6.00;;;11.30;99.90;;;;;;5030663;28;20459;-60
2021/04/23 11:57:47;;;;;;;7.23;6.40;;;11.20;99.90;;;;;;5030795;28;20514;-60
2021/04/23 12:00:15;;;;;;;10.00;6.40;;;11.10;99.90;;;;;;5030644;28;21251;-61
2021/04/23 12:03:05;;;;;;;6.60;6.00;;;11.10;99.90;;;;;;5030968;28;20409;-61
2021/04/23 12:05:34;;;;;;;8.03;6.57;;;11.10;99.90;;;;;;5027984;28;20445;-60
2021/04/23 12:08:05;;;;;;;8.10;6.37;;;11.00;99.90;;;;;;5030638;28;20412;-60
2021/04/23 12:10:35;;;;;;;6.77;6.07;;;11.10;99.90;;;;;;5030543;28;20420;-60
2021/04/23 12:13:01;;;;;;;6.50;5.90;;;11.30;99.90;;;;;;5030677;28;20409;-61
2021/04/23 12:15:31;;;;;;;7.43;6.70;;;11.40;99.90;;;;;;5031388;28;20789;-61
2021/04/23 12:18:00;;;;;;;10.93;6.40;;;11.50;99.90;;;;;;5030246;28;20438;-60
2021/04/23 12:20:37;;;;;;;8.10;6.30;;;11.60;99.90;;;;;;5024323;28;20559;-59
2021/04/23 12:23:10;;;;;;;7.67;6.67;;;11.70;99.90;;;;;;5030357;28;20963;-62
2021/04/23 12:25:41;;;;;;;9.00;6.83;;;11.80;99.90;;;;;;5024432;28;20438;-58
2021/04/23 12:28:34;;;;;;;8.37;6.53;;;11.60;99.90;;;;;;5025876;28;20428;-58
2021/04/23 12:31:10;;;;;;;7.00;5.80;;;11.60;99.90;;;;;;5029300;28;20859;-60
2021/04/23 12:33:38;;;;;;;7.77;6.60;;;11.50;99.90;;;;;;5020695;28;20500;-57
2021/04/23 12:36:26;;;;;;;7.90;6.17;;;11.40;99.90;;;;;;5029421;28;20472;-64
2021/04/23 12:38:57;;;;;;;7.13;6.10;;;11.70;99.90;;;;;;5020312;28;20515;-63
2021/04/23 12:41:24;;;;;;;7.17;6.30;;;12.10;99.90;;;;;;5029782;28;20605;-63
2021/04/23 12:43:51;;;;;;;6.77;6.10;;;12.10;99.90;;;;;;5027339;28;20417;-63
2021/04/23 12:46:41;;;;;;;8.97;6.23;;;12.20;99.90;;;;;;5028724;28;20440;-63
2021/04/23 12:49:14;;;;;;;11.27;6.80;;;12.40;99.90;;;;;;5024914;28;20951;-65
2021/04/23 12:51:46;;;;;;;6.97;6.30;;;12.50;99.90;;;;;;5030446;28;20962;-64
2021/04/23 12:54:13;;;;;;;8.03;6.40;;;12.40;99.90;;;;;;5029017;28;20773;-63
2021/04/23 12:56:40;;;;;;;9.80;6.50;;;12.20;99.90;;;;;;5017943;28;20908;-63
2021/04/23 12:59:06;;;;;;;9.73;6.80;;;12.20;99.90;;;;;;5030083;28;20512;-64
2021/04/23 13:01:33;;;;;;;7.43;6.73;;;13.00;99.90;;;;;;5022467;28;20432;-63
2021/04/23 13:04:09;;;;;;;7.43;6.63;;;12.90;99.90;;;;;;5022291;28;20433;-64
2021/04/23 13:06:35;;;;;;;11.37;7.13;;;12.60;99.90;;;;;;5017990;28;20427;-64